Latest Weather Observations for Green Cape

IDN60801

Issued at 1:06 pm EDT Thursday 5 March 2015 (issued every 30 minutes, with the page automatically refreshed every 10 minutes)

About weather observations | Map of weather stations | Latest weather observations for NSW | Other Formats
Station Details ID: 069137 Name: GREEN CAPE AWS Lat: -37.26 Lon: 150.05 Height: 19.4 m
Data from the previous 72 hours. | See also: Recent months at Green Cape
Date/Time
EDT
Temp
°C
App
Temp
°C
Dew
Point
Rel
Hum
%
Delta-T
°C
Wind Press
QNH
hPa
Press
MSL
hPa
Rain
since 9 am
mm
Dir
 
Spd
km/h
Gust
km/h
Spd
kts
Gust
kts
05/01:00pm 14.9 -0.4 7.9 63 3.5 SW 78 102 42 55 1010.6 1010.5 0.0
05/12:30pm 15.1 0.8 7.4 60 3.8 WSW 72 91 39 49 1010.3 1010.2 0.0
05/12:12pm 14.3 -0.5 8.5 68 2.9 SW 76 96 41 52 1010.2 1010.1 0.0
05/12:04pm 14.8 2.2 9.0 68 3.0 SSW 65 96 35 52 1009.2 1009.1 0.0
05/12:00pm 15.3 4.2 8.8 65 3.3 SSW 57 80 31 43 1009.4 1009.3 0.0
05/11:53am 16.1 5.1 8.3 60 4.0 SW 56 80 30 43 1009.7 1009.6 0.0
05/11:30am 15.4 2.8 7.2 58 4.0 SW 63 76 34 41 1009.6 1009.5 0.0
05/11:21am 15.2 1.0 7.7 61 3.7 SW 72 96 39 52 1009.4 1009.3 0.0
05/11:19am 15.2 1.3 7.5 60 3.8 SW 70 96 38 52 1008.8 1008.7 0.0
05/11:01am 16.5 4.3 7.4 55 4.5 WSW 61 80 33 43 1009.1 1009.0 0.0
05/11:00am 16.5 3.9 7.4 55 4.6 WSW 63 80 34 43 1009.0 1008.9 0.0
05/10:30am 16.1 3.8 7.1 55 4.5 SW 61 80 33 43 1008.3 1008.2 0.0
05/10:00am 15.9 2.1 7.7 58 4.1 WSW 70 93 38 50 1007.9 1007.8 0.0
05/09:30am 15.3 3.4 8.8 65 3.3 WSW 61 80 33 43 1007.7 1007.6 0.0
05/09:00am 14.7 3.1 9.9 73 2.5 WSW 61 87 33 47 1007.7 1007.6 0.0
05/08:30am 14.4 2.9 10.0 75 2.3 WSW 61 82 33 44 1007.5 1007.4 0.0
05/08:00am 14.2 1.1 10.6 79 1.9 WSW 70 89 38 48 1007.2 1007.1 0.0
05/07:32am 14.8 -0.3 12.1 84 1.5 SW 83 102 45 55 1005.8 1005.7 0.0
05/07:30am 14.8 -0.4 11.9 83 1.6 SW 83 102 45 55 1005.5 1005.4 0.0
05/07:24am 16.9 4.4 11.8 72 2.8 SW 69 102 37 55 1004.4 1004.3 0.0
05/07:14am 18.2 8.3 12.9 71 3.0 SW 57 85 31 46 1004.7 1004.6 0.0
05/07:08am 18.2 10.9 12.9 71 3.0 SW 43 69 23 37 1004.6 1004.5 0.0
05/07:00am 17.7 14.1 14.2 80 2.0 WSW 26 52 14 28 1004.6 1004.5 0.0
05/06:30am 16.8 15.3 14.3 85 1.4 W 15 17 8 9 1004.1 1004.0 0.0
05/06:00am 17.2 15.9 14.7 85 1.4 W 15 19 8 10 1003.8 1003.7 0.0
05/05:30am 17.3 14.3 14.9 86 1.4 W 24 28 13 15 1003.8 1003.7 0.0
05/05:00am 17.0 15.0 15.0 88 1.2 W 19 20 10 11 1003.8 1003.7 0.0
05/04:30am 16.8 15.4 14.4 86 1.4 W 15 19 8 10 1003.7 1003.6 0.0
05/04:00am 17.2 16.2 14.5 84 1.6 W 13 15 7 8 1003.5 1003.4 0.0
05/03:30am 17.5 16.5 14.6 83 1.7 W 13 15 7 8 1003.7 1003.6 0.0
05/03:00am 17.6 17.0 14.5 82 1.8 W 11 13 6 7 1004.1 1004.0 0.0
05/02:30am 17.8 17.5 14.3 80 2.0 W 9 11 5 6 1004.6 1004.5 0.0
05/02:00am 18.0 17.5 14.9 82 1.8 W 11 11 6 6 1005.2 1005.1 0.0
05/01:30am 17.9 17.1 15.0 83 1.7 W 13 15 7 8 1005.9 1005.8 0.0
05/01:00am 18.0 18.1 15.4 85 1.5 W 9 11 5 6 1006.4 1006.3 0.0
05/12:30am 18.1 18.7 15.4 84 1.6 WNW 6 7 3 4 1006.5 1006.4 0.0
05/12:00am 18.2 18.5 15.1 82 1.8 W 7 9 4 5 1007.3 1007.2 0.0
 
Date/Time
EDT
Temp
°C
App
Temp
°C
Dew
Point
Rel
Hum
%
Delta-T
°C
Wind Press
QNH
hPa
Press
MSL
hPa
Rain
since 9 am
mm
Dir
 
Spd
km/h
Gust
km/h
Spd
kts
Gust
kts
04/11:30pm 18.4 17.4 14.7 79 2.1 WSW 13 13 7 7 1007.8 1007.7 0.0
04/11:00pm 18.4 16.3 14.7 79 2.2 SW 19 22 10 12 1008.4 1008.3 0.0
04/10:30pm 18.3 16.1 14.8 80 2.0 SW 20 24 11 13 1008.9 1008.8 0.0
04/10:00pm 18.2 16.3 15.3 83 1.7 SSW 19 22 10 12 1009.4 1009.3 0.0
04/09:30pm 17.7 15.3 15.3 86 1.4 SSW 22 28 12 15 1009.7 1009.6 0.0
04/09:00pm 18.2 15.0 15.3 83 1.7 SSW 26 30 14 16 1009.6 1009.5 0.0
04/08:30pm 19.0 15.9 15.7 81 2.0 S 26 30 14 16 1009.3 1009.2 0.0
04/08:00pm 19.2 17.4 15.9 81 2.0 S 20 24 11 13 1009.3 1009.2 0.0
04/07:30pm 19.4 18.2 16.1 81 2.0 SSW 17 19 9 10 1009.3 1009.2 0.0
04/07:00pm 19.8 18.9 15.9 78 2.3 S 15 19 8 10 1009.3 1009.2 0.0
04/06:30pm 20.3 19.0 15.7 75 2.7 S 17 19 9 10 1009.2 1009.1 0.0
04/06:00pm 20.9 19.2 15.7 72 3.1 S 19 22 10 12 1009.4 1009.3 0.0
04/05:30pm 21.7 20.0 15.8 69 3.5 S 19 20 10 11 1009.5 1009.4 0.0
04/05:00pm 21.9 20.9 15.7 68 3.7 S 15 17 8 9 1009.6 1009.5 0.0
04/04:30pm 23.4 22.2 16.2 64 4.4 SSE 17 19 9 10 1009.6 1009.5 0.0
04/04:00pm 23.2 21.6 16.5 66 4.1 SSE 20 24 11 13 1009.9 1009.8 0.0
04/03:30pm 23.2 20.6 15.8 63 4.5 SSE 24 26 13 14 1010.4 1010.3 0.0
04/03:00pm 24.1 22.3 15.9 60 5.0 SSE 20 22 11 12 1010.9 1010.8 0.0
04/02:30pm 24.7 24.0 16.4 60 5.1 SSE 15 19 8 10 1011.1 1011.0 0.0
04/02:00pm 24.4 23.3 16.4 61 4.9 SSE 17 19 9 10 1011.4 1011.3 0.0
04/01:30pm 24.4 23.3 16.4 61 4.9 SSE 17 19 9 10 1011.7 1011.6 0.0
04/01:00pm 24.8 24.5 16.5 60 5.1 SE 13 15 7 8 1011.9 1011.8 0.0
04/12:30pm 24.6 24.7 16.6 61 4.9 SE 11 13 6 7 1012.4 1012.3 0.0
04/12:00pm 23.8 23.9 16.6 64 4.4 SE 11 13 6 7 1013.0 1012.9 0.0
04/11:30am 23.1 24.3 16.9 68 3.8 S 6 7 3 4 1013.4 1013.3 0.0
04/11:00am 20.4 21.0 15.2 72 3.1 WSW 6 7 3 4 1013.8 1013.7 0.0
04/10:30am 20.0 19.6 15.2 74 2.8 W 11 13 6 7 1014.0 1013.9 0.0
04/10:00am 18.8 17.4 14.5 76 2.5 W 15 17 8 9 1014.2 1014.2 0.0
04/09:30am 17.9 15.6 14.0 78 2.2 W 19 22 10 12 1014.5 1014.5 0.0
04/09:00am 17.6 15.7 14.3 81 1.9 W 17 19 9 10 1014.4 1014.4 0.0
04/08:30am 17.3 15.9 14.4 83 1.7 W 15 19 8 10 1014.3 1014.3 0.0
04/08:00am 17.0 15.3 14.6 86 1.4 WSW 17 19 9 10 1014.1 1014.1 0.0
04/07:30am 16.7 15.4 14.7 88 1.2 W 15 17 8 9 1013.8 1013.7 0.0
04/07:00am 16.3 14.5 14.5 89 1.0 W 17 17 9 9 1013.4 1013.3 0.0
04/06:30am 16.2 14.5 14.6 90 0.9 W 17 19 9 10 1013.1 1013.0 0.0
04/06:00am 16.2 14.9 14.7 91 0.9 W 15 17 8 9 1013.0 1012.9 0.0
04/05:30am 16.2 15.2 14.7 91 0.9 W 13 15 7 8 1013.1 1013.0 0.0
04/05:00am 16.2 15.6 14.7 91 0.9 W 11 13 6 7 1013.1 1013.0 0.0
04/04:30am 16.0 15.0 14.5 91 0.9 W 13 13 7 7 1013.1 1013.0 0.0
04/04:00am 16.2 15.6 14.7 91 0.9 W 11 13 6 7 1013.4 1013.3 0.0
04/03:30am 16.4 15.9 14.8 90 0.9 W 11 13 6 7 1013.6 1013.5 0.0
04/03:00am 16.4 15.8 14.6 89 1.0 W 11 11 6 6 1013.9 1013.8 0.0
04/02:30am 16.3 16.0 14.5 89 1.0 W 9 11 5 6 1014.1 1014.1 0.0
04/02:00am 16.8 16.4 15.2 90 0.9 W 11 13 6 7 1014.5 1014.5 0.0
04/01:30am 16.8 16.3 15.0 89 1.0 W 11 13 6 7 1014.9 1014.9 0.0
04/01:00am 17.1 16.9 14.7 86 1.4 W 9 9 5 5 1015.1 1015.1 0.0
04/12:30am 17.3 16.7 14.6 84 1.6 WNW 11 13 6 7 1015.4 1015.4 0.0
04/12:00am 17.3 16.8 14.8 85 1.4 W 11 13 6 7 1015.8 1015.8 0.0
 
Date/Time
EDT
Temp
°C
App
Temp
°C
Dew
Point
Rel
Hum
%
Delta-T
°C
Wind Press
QNH
hPa
Press
MSL
hPa
Rain
since 9 am
mm
Dir
 
Spd
km/h
Gust
km/h
Spd
kts
Gust
kts
03/11:30pm 17.3 16.4 14.8 85 1.4 W 13 15 7 8 1016.0 1016.0 0.0
03/11:00pm 17.7 17.2 15.0 84 1.6 W 11 13 6 7 1016.0 1016.0 0.0
03/10:30pm 17.6 17.1 14.9 84 1.6 W 11 13 6 7 1016.0 1016.0 0.0
03/10:00pm 17.9 16.8 15.3 85 1.5 W 15 17 8 9 1016.1 1016.1 0.0
03/09:30pm 18.6 17.9 15.5 82 1.8 SW 13 13 7 7 1016.2 1016.2 0.0
03/09:00pm 18.6 18.3 15.5 82 1.8 SW 11 15 6 8 1016.1 1016.1 0.0
03/08:30pm 18.7 17.6 15.4 81 1.9 SW 15 17 8 9 1015.7 1015.7 0.0
03/08:00pm 18.9 17.4 15.4 80 2.1 SSW 17 20 9 11 1015.4 1015.4 0.0
03/07:30pm 19.1 17.3 15.4 79 2.2 S 19 24 10 13 1015.3 1015.3 0.0
03/07:00pm 19.4 16.6 15.3 77 2.4 S 24 26 13 14 1015.1 1015.1 0.0
03/06:30pm 19.9 16.6 16.0 78 2.3 S 28 32 15 17 1015.0 1015.0 0.0
03/06:00pm 20.1 15.8 15.5 75 2.7 S 32 35 17 19 1014.8 1014.8 0.0
03/05:30pm 20.2 15.4 15.6 75 2.7 S 35 39 19 21 1014.7 1014.7 0.0
03/05:00pm 20.8 15.6 15.6 72 3.1 S 37 41 20 22 1014.5 1014.5 0.0
03/04:30pm 20.9 15.6 15.4 71 3.3 S 37 44 20 24 1014.3 1014.3 0.0
03/04:00pm 21.4 16.6 15.7 70 3.4 S 35 41 19 22 1014.4 1014.4 0.0
03/03:30pm 22.1 16.6 13.5 58 5.0 S 35 41 19 22 1014.4 1014.4 0.0
03/03:00pm 22.2 17.2 14.1 60 4.7 S 33 39 18 21 1014.7 1014.7 0.0
03/02:30pm 22.6 18.3 15.9 66 4.0 S 33 37 18 20 1015.0 1015.0 0.0
03/02:00pm 23.8 21.5 15.8 61 4.8 SSE 22 28 12 15 1015.5 1015.5 0.0
03/01:30pm 22.5 21.7 16.1 67 3.9 SSW 15 17 8 9 1015.6 1015.6 0.0
03/01:00pm 21.5 20.8 16.5 73 3.0 S 15 17 8 9 1015.7 1015.7 0.0
03/12:30pm 21.1 20.9 16.7 76 2.7 SSW 13 15 7 8 1015.7 1015.7 0.0
03/12:00pm 20.9 20.5 16.3 75 2.8 SW 13 17 7 9 1016.1 1016.1 0.0
03/11:30am 20.9 20.0 15.9 73 3.0 SW 15 17 8 9 1016.4 1016.4 0.0
03/11:00am 20.9 19.3 15.9 73 3.0 SW 19 20 10 11 1016.3 1016.3 0.0
03/10:30am 20.8 19.2 16.0 74 2.9 SSW 19 22 10 12 1016.2 1016.2 0.0
03/10:00am 20.2 19.8 15.2 73 2.9 WSW 11 17 6 9 1016.3 1016.3 0.0
03/09:30am 19.9 19.5 15.1 74 2.8 WSW 11 13 6 7 1015.9 1015.9 0.0
03/09:00am 19.5 19.0 15.0 75 2.6 W 11 11 6 6 1016.0 1016.0 0.2
03/08:30am 18.9 18.4 15.0 78 2.3 W 11 13 6 7 1015.4 1015.4 0.2
03/08:00am 18.5 17.4 15.2 81 1.9 W 15 17 8 9 1015.3 1015.3 0.2
03/07:30am 18.3 17.5 15.2 82 1.8 W 13 15 7 8 1014.2 1014.2 0.2
03/07:00am 18.2 16.3 15.1 82 1.8 W 19 20 10 11 1014.3 1014.3 0.2
03/06:30am 18.5 17.1 14.6 78 2.3 W 15 17 8 9 1013.9 1013.8 0.2
03/06:00am 18.4 18.5 14.5 78 2.3 W 7 7 4 4 1013.6 1013.5 0.2
03/05:30am 18.5 18.8 14.4 77 2.4 W 6 7 3 4 1013.5 1013.4 0.2
03/05:00am 18.6 18.6 14.3 76 2.5 NW 7 11 4 6 1013.5 1013.4 0.2
03/04:30am 19.1 19.1 15.2 78 2.3 NNW 9 17 5 9 1013.5 1013.4 0.2
03/04:00am 19.3 16.1 16.3 83 1.8 N 28 33 15 18 1013.1 1013.0 0.2
03/03:30am 19.4 15.8 16.2 82 1.9 N 30 35 16 19 1012.9 1012.8 0.2
03/03:00am 19.3 15.7 16.2 82 1.9 N 30 35 16 19 1013.3 1013.2 0.2
03/02:30am 19.3 15.1 16.2 82 1.9 N 33 37 18 20 1013.2 1013.1 0.2
03/02:00am 19.4 15.2 16.1 81 2.0 N 33 37 18 20 1014.0 1013.9 0.2
03/01:30am 19.5 15.0 16.3 82 1.9 N 35 39 19 21 1014.2 1014.2 0.2
03/01:00am 19.6 15.6 16.3 81 2.0 N 32 39 17 21 1014.7 1014.7 0.2
03/12:30am 19.7 16.6 16.5 82 1.9 N 28 32 15 17 1015.5 1015.5 0.2
03/12:00am 19.8 17.0 16.4 81 2.0 N 26 30 14 16 1015.8 1015.8 0.2
 
Date/Time
EDT
Temp
°C
App
Temp
°C
Dew
Point
Rel
Hum
%
Delta-T
°C
Wind Press
QNH
hPa
Press
MSL
hPa
Rain
since 9 am
mm
Dir
 
Spd
km/h
Gust
km/h
Spd
kts
Gust
kts
02/11:30pm 19.9 17.2 16.5 81 2.0 N 26 32 14 17 1016.1 1016.1 0.2
02/11:00pm 20.0 17.1 16.2 79 2.3 N 26 32 14 17 1016.2 1016.2 0.2
02/10:30pm 20.3 17.1 16.3 78 2.4 N 28 35 15 19 1016.5 1016.5 0.2
02/10:00pm 20.7 16.1 16.1 75 2.8 NNE 35 41 19 22 1016.0 1016.0 0.2
02/09:30pm 20.7 16.4 15.9 74 2.9 NNE 33 39 18 21 1016.4 1016.4 0.2
02/09:00pm 20.6 15.3 15.2 71 3.2 NNE 37 43 20 23 1016.2 1016.2 0.2
02/08:30pm 20.6 15.3 15.2 71 3.2 NNE 37 44 20 24 1016.1 1016.1 0.2
02/08:00pm 20.5 15.0 14.8 70 3.3 NNE 37 43 20 23 1015.8 1015.8 0.2
02/07:30pm 20.6 14.7 14.7 69 3.5 NNE 39 43 21 23 1015.7 1015.7 0.2
02/07:00pm 20.8 15.7 14.7 68 3.6 NNE 35 39 19 21 1015.4 1015.4 0.2
02/06:30pm 21.2 16.9 15.3 69 3.5 NNE 32 37 17 20 1015.5 1015.5 0.2
02/06:00pm 21.6 17.4 14.7 65 4.1 NNE 30 37 16 20 1016.0 1016.0 0.2
02/05:30pm 21.9 18.8 15.7 68 3.7 NNE 26 30 14 16 1016.1 1016.1 0.2
02/05:00pm 21.8 18.8 14.7 64 4.2 NNE 24 30 13 16 1016.7 1016.7 0.2
02/04:30pm 23.2 20.8 15.5 62 4.6 NNE 22 26 12 14 1016.8 1016.8 0.2
02/04:00pm 23.8 21.5 15.8 61 4.8 NNE 22 26 12 14 1017.0 1017.0 0.2
02/03:30pm 23.6 21.6 15.6 61 4.8 NE 20 24 11 13 1017.3 1017.3 0.2
02/03:00pm 24.1 24.1 15.1 57 5.4 NNE 9 17 5 9 1017.7 1017.7 0.2
02/02:30pm 23.9 23.7 13.7 53 6.0 NNE 7 9 4 5 1018.2 1018.2 0.2
02/02:00pm 23.6 23.3 13.2 52 6.0 NE 7 9 4 5 1018.3 1018.3 0.2
02/01:30pm 23.6 23.3 13.2 52 6.0 NE 7 9 4 5 1018.6 1018.6 0.2

Other Formats:

Comma delimited format used in spreadsheet applications
http://www.bom.gov.au/fwo/IDN60801/IDN60801.94934.axf

JavaScript Object Notation format (JSON) in row-major order
http://www.bom.gov.au/fwo/IDN60801/IDN60801.94934.json